Time;durP1;ratioP1;P1;durP2;ratioP2;P2;SDS_P1;SDS_P2;PMS_P1;PMS_P2;Temp;Humidity;BMP_temperature;BMP_pressure;BME280_temperature;BME280_humidity;BME280_pressure;Samples;Min_cycle;Max_cycle;Signal;HPM_P1;HPM_P2
2023/06/03 00:01:40;;;;;;;0.40;0.40;;;14.30;61.30;;;;;;5025642;28;20292;-65
2023/06/03 00:04:07;;;;;;;0.40;0.40;;;14.30;61.30;;;;;;5025823;28;20201;-64
2023/06/03 00:06:35;;;;;;;0.47;0.47;;;14.30;61.10;;;;;;5030048;28;20560;-65
2023/06/03 00:09:02;;;;;;;0.50;0.40;;;14.30;61.20;;;;;;5029303;28;20196;-65
2023/06/03 00:11:29;;;;;;;0.50;0.50;;;14.20;61.20;;;;;;5029698;28;20674;-65
2023/06/03 00:13:56;;;;;;;0.57;0.57;;;14.20;61.30;;;;;;5029154;28;20594;-65
2023/06/03 00:16:23;;;;;;;0.50;0.50;;;14.20;61.40;;;;;;5028542;28;20281;-65
2023/06/03 00:18:52;;;;;;;0.40;0.40;;;14.20;61.60;;;;;;5028589;28;20197;-65
2023/06/03 00:21:19;;;;;;;0.73;0.70;;;14.20;61.60;;;;;;5031266;28;20238;-65
2023/06/03 00:23:48;;;;;;;0.50;0.50;;;14.20;61.70;;;;;;5031404;28;20230;-65
2023/06/03 00:26:15;;;;;;;0.70;0.63;;;14.20;61.80;;;;;;5014882;28;20604;-64
2023/06/03 00:28:43;;;;;;;0.50;0.50;;;14.20;61.70;;;;;;5010151;28;20305;-65
2023/06/03 00:31:10;;;;;;;0.50;0.50;;;14.20;61.70;;;;;;5032497;28;20201;-65
2023/06/03 00:33:37;;;;;;;0.50;0.50;;;14.10;61.70;;;;;;5028077;28;20215;-65
2023/06/03 00:36:07;;;;;;;0.50;0.50;;;14.10;61.70;;;;;;5032469;28;20228;-64
2023/06/03 00:38:34;;;;;;;0.50;0.50;;;14.10;61.90;;;;;;5032684;28;20205;-65
2023/06/03 00:41:01;;;;;;;0.50;0.50;;;14.10;61.90;;;;;;5032981;28;20215;-65
2023/06/03 00:43:28;;;;;;;0.60;0.60;;;14.00;61.90;;;;;;5032699;28;20210;-65
2023/06/03 00:45:55;;;;;;;0.50;0.50;;;14.00;62.10;;;;;;5033163;28;20197;-65
2023/06/03 00:48:22;;;;;;;0.40;0.40;;;13.90;62.10;;;;;;5028440;28;20211;-64
2023/06/03 00:50:49;;;;;;;0.63;0.47;;;13.90;62.20;;;;;;5009932;28;20232;-65
2023/06/03 00:53:18;;;;;;;0.50;0.50;;;13.90;62.30;;;;;;5033005;28;20232;-65
2023/06/03 00:55:45;;;;;;;0.53;0.53;;;13.90;62.30;;;;;;5014637;28;20778;-65
2023/06/03 00:58:13;;;;;;;0.60;0.60;;;13.90;62.40;;;;;;5030702;28;20231;-65
2023/06/03 01:00:40;;;;;;;0.40;0.40;;;13.90;62.40;;;;;;5031856;28;20217;-65
2023/06/03 01:03:13;;;;;;;0.87;0.50;;;14.00;62.50;;;;;;5031436;28;20252;-65
2023/06/03 01:05:41;;;;;;;0.40;0.40;;;14.00;62.60;;;;;;5031737;28;20198;-65
2023/06/03 01:08:21;;;;;;;0.70;0.70;;;13.90;62.50;;;;;;5032702;28;20198;-65
2023/06/03 01:10:58;;;;;;;0.40;0.40;;;14.00;62.70;;;;;;5030868;28;20234;-65
2023/06/03 01:13:30;;;;;;;0.60;0.60;;;14.00;62.70;;;;;;5030577;28;20554;-65
2023/06/03 01:16:04;;;;;;;0.70;0.70;;;13.90;62.70;;;;;;5026966;28;20209;-65
2023/06/03 01:18:36;;;;;;;0.50;0.50;;;13.90;62.70;;;;;;5011338;28;20205;-65
2023/06/03 01:21:05;;;;;;;0.50;0.50;;;13.90;62.80;;;;;;5031466;28;20275;-65
2023/06/03 01:23:34;;;;;;;0.40;0.40;;;13.90;62.90;;;;;;5032655;28;20309;-65
2023/06/03 01:26:04;;;;;;;0.47;0.47;;;13.90;62.80;;;;;;5026966;28;20606;-65
2023/06/03 01:28:31;;;;;;;0.50;0.50;;;13.90;62.80;;;;;;5013617;28;20209;-65
2023/06/03 01:31:00;;;;;;;0.50;0.50;;;13.90;62.90;;;;;;5014193;28;20255;-65
2023/06/03 01:33:29;;;;;;;0.40;0.40;;;13.90;63.00;;;;;;5012390;28;20214;-65
2023/06/03 01:36:01;;;;;;;0.40;0.40;;;13.90;63.00;;;;;;5031869;28;20205;-65
2023/06/03 01:38:28;;;;;;;0.40;0.40;;;13.90;63.00;;;;;;5008907;28;20201;-65
2023/06/03 01:41:00;;;;;;;0.60;0.60;;;13.80;63.10;;;;;;5014048;28;20566;-65
2023/06/03 01:43:27;;;;;;;0.60;0.60;;;13.90;63.30;;;;;;5026568;28;20194;-65
2023/06/03 01:45:54;;;;;;;0.37;0.37;;;13.80;63.30;;;;;;5014162;28;20308;-64
2023/06/03 01:48:22;;;;;;;0.37;0.37;;;13.80;63.40;;;;;;5030845;28;20224;-65
2023/06/03 01:50:49;;;;;;;1.70;0.60;;;13.70;63.40;;;;;;5031631;28;20206;-65
2023/06/03 01:53:18;;;;;;;0.50;0.40;;;13.70;63.60;;;;;;5011386;28;20272;-65
2023/06/03 01:55:47;;;;;;;0.60;0.60;;;13.70;63.70;;;;;;5013415;28;20291;-65
2023/06/03 01:58:16;;;;;;;0.70;0.50;;;13.60;64.40;;;;;;5013409;28;20236;-65
2023/06/03 02:00:43;;;;;;;0.50;0.50;;;13.60;63.70;;;;;;5007154;28;20382;-65
2023/06/03 02:03:10;;;;;;;0.43;0.43;;;13.60;63.80;;;;;;5026229;28;20282;-65
2023/06/03 02:05:37;;;;;;;0.93;0.50;;;13.50;63.80;;;;;;5012634;28;20205;-65
2023/06/03 02:08:07;;;;;;;0.73;0.50;;;13.60;64.00;;;;;;5013851;28;20209;-65
2023/06/03 02:10:35;;;;;;;0.67;0.50;;;13.50;64.00;;;;;;5013451;28;20205;-65
2023/06/03 02:13:02;;;;;;;0.30;0.30;;;13.50;64.10;;;;;;5037885;28;20194;-65
2023/06/03 02:15:31;;;;;;;0.47;0.47;;;13.60;64.10;;;;;;5055546;28;20193;-65
2023/06/03 02:17:59;;;;;;;0.50;0.50;;;13.50;64.10;;;;;;5016552;28;20204;-65
2023/06/03 02:20:26;;;;;;;0.40;0.40;;;13.50;64.10;;;;;;5013343;28;20208;-64
2023/06/03 02:22:57;;;;;;;0.40;0.40;;;13.50;64.20;;;;;;5027207;28;20205;-64
2023/06/03 02:25:24;;;;;;;0.57;0.57;;;13.50;64.20;;;;;;5032535;28;20572;-65
2023/06/03 02:27:54;;;;;;;0.33;0.33;;;13.40;64.30;;;;;;5032925;28;20210;-65
2023/06/03 02:30:22;;;;;;;0.50;0.50;;;13.40;64.30;;;;;;5031646;28;20200;-65
2023/06/03 02:32:51;;;;;;;0.40;0.40;;;13.40;64.40;;;;;;5029991;28;20202;-65
2023/06/03 02:35:18;;;;;;;0.40;0.40;;;13.40;64.40;;;;;;5028290;28;20207;-65
2023/06/03 02:37:45;;;;;;;0.50;0.50;;;13.50;64.40;;;;;;5013374;28;20213;-65
2023/06/03 02:40:12;;;;;;;0.40;0.40;;;13.50;64.30;;;;;;5030731;28;20205;-65
2023/06/03 02:42:40;;;;;;;0.40;0.40;;;13.60;64.40;;;;;;5011291;28;20274;-65
2023/06/03 02:45:09;;;;;;;0.53;0.50;;;13.50;64.30;;;;;;5011696;28;20209;-65
2023/06/03 02:47:36;;;;;;;0.60;0.60;;;13.50;64.30;;;;;;5012417;28;20663;-65
2023/06/03 02:50:06;;;;;;;1.03;0.40;;;13.50;64.30;;;;;;5029584;28;20271;-65
2023/06/03 02:52:33;;;;;;;0.50;0.50;;;13.50;64.40;;;;;;5029913;28;20208;-65
2023/06/03 02:55:01;;;;;;;0.93;0.50;;;13.50;64.40;;;;;;5009550;28;20217;-65
2023/06/03 02:57:28;;;;;;;0.73;0.50;;;13.50;64.40;;;;;;5007052;28;20288;-65
2023/06/03 02:59:56;;;;;;;0.40;0.40;;;13.50;64.50;;;;;;5008445;28;20600;-65
2023/06/03 03:02:24;;;;;;;0.40;0.40;;;13.40;64.50;;;;;;5029045;28;20221;-65
2023/06/03 03:04:51;;;;;;;0.50;0.50;;;13.40;64.60;;;;;;5028953;28;20311;-65
2023/06/03 03:07:20;;;;;;;0.40;0.40;;;13.40;64.60;;;;;;5030462;28;20295;-65
2023/06/03 03:09:47;;;;;;;0.50;0.50;;;13.40;64.80;;;;;;5012297;28;20207;-65
2023/06/03 03:12:15;;;;;;;0.50;0.40;;;13.50;64.90;;;;;;5029073;28;20215;-65
2023/06/03 03:14:45;;;;;;;0.50;0.50;;;13.40;64.80;;;;;;5011844;28;20220;-65
2023/06/03 03:17:12;;;;;;;0.47;0.47;;;13.40;64.90;;;;;;5028821;28;20295;-65
2023/06/03 03:19:39;;;;;;;0.50;0.50;;;13.40;64.90;;;;;;5010785;28;20645;-65
2023/06/03 03:22:07;;;;;;;0.43;0.43;;;13.40;64.90;;;;;;5029423;28;20232;-65
2023/06/03 03:24:35;;;;;;;0.50;0.50;;;13.40;64.90;;;;;;5029735;28;20196;-65
2023/06/03 03:27:02;;;;;;;0.40;0.40;;;13.40;64.90;;;;;;5011798;28;20223;-65
2023/06/03 03:29:33;;;;;;;0.43;0.43;;;13.50;65.00;;;;;;5029293;28;20658;-65
2023/06/03 03:32:08;;;;;;;0.40;0.40;;;13.50;65.00;;;;;;5025450;28;20292;-66
2023/06/03 03:34:38;;;;;;;0.30;0.30;;;13.60;65.00;;;;;;5009200;28;20500;-66
2023/06/03 03:37:11;;;;;;;0.40;0.40;;;13.50;64.90;;;;;;5012336;28;20200;-66
2023/06/03 03:39:40;;;;;;;1.47;0.50;;;13.50;64.90;;;;;;5029379;28;20216;-66
2023/06/03 03:42:10;;;;;;;0.30;0.30;;;13.60;65.10;;;;;;5005590;28;20215;-66
2023/06/03 03:44:37;;;;;;;0.30;0.30;;;13.60;65.10;;;;;;5011240;28;20215;-66
2023/06/03 03:47:07;;;;;;;0.30;0.30;;;13.50;65.10;;;;;;5011461;28;20217;-65
2023/06/03 03:49:36;;;;;;;0.40;0.40;;;13.60;65.00;;;;;;5010387;28;20211;-65
2023/06/03 03:52:07;;;;;;;0.40;0.40;;;13.70;65.10;;;;;;5008525;28;20719;-65
2023/06/03 03:54:37;;;;;;;0.33;0.33;;;13.70;65.10;;;;;;5011460;28;20204;-65
2023/06/03 03:57:11;;;;;;;0.50;0.50;;;13.70;65.10;;;;;;5010769;28;20215;-66
2023/06/03 03:59:41;;;;;;;0.30;0.30;;;13.70;65.10;;;;;;5025836;28;20780;-66
2023/06/03 04:02:08;;;;;;;0.60;0.60;;;13.80;65.10;;;;;;5008735;28;20209;-66
2023/06/03 04:04:41;;;;;;;1.20;0.43;;;13.80;65.00;;;;;;5020702;28;20276;-66
2023/06/03 04:07:10;;;;;;;0.30;0.30;;;13.80;65.00;;;;;;5029341;28;20742;-65
2023/06/03 04:09:39;;;;;;;0.33;0.33;;;13.80;64.80;;;;;;5029735;28;20272;-65
2023/06/03 04:12:17;;;;;;;0.50;0.50;;;13.90;64.90;;;;;;5028380;28;20204;-65
2023/06/03 04:14:49;;;;;;;0.50;0.50;;;13.90;64.80;;;;;;4999649;28;20575;-65
2023/06/03 04:17:21;;;;;;;0.47;0.47;;;13.80;64.60;;;;;;5011230;28;20379;-65
2023/06/03 04:19:49;;;;;;;0.50;0.50;;;13.90;64.70;;;;;;5024647;28;20260;-65
2023/06/03 04:22:23;;;;;;;0.50;0.50;;;13.80;64.50;;;;;;5008164;28;20217;-66
2023/06/03 04:25:07;;;;;;;0.50;0.50;;;13.80;64.50;;;;;;5011702;28;20622;-65
2023/06/03 04:27:57;;;;;;;0.40;0.40;;;13.90;64.50;;;;;;5002537;28;20312;-65
2023/06/03 04:30:24;;;;;;;0.30;0.30;;;13.80;64.40;;;;;;5028899;28;20201;-66
2023/06/03 04:32:51;;;;;;;0.40;0.40;;;13.90;64.50;;;;;;5026532;28;20410;-65
2023/06/03 04:35:21;;;;;;;0.30;0.30;;;13.90;64.40;;;;;;5006666;28;20219;-65
2023/06/03 04:37:48;;;;;;;0.47;0.40;;;14.00;64.40;;;;;;5011779;28;20201;-65
2023/06/03 04:40:18;;;;;;;0.40;0.40;;;14.00;64.20;;;;;;5011632;28;20589;-65
2023/06/03 04:42:47;;;;;;;0.47;0.47;;;14.10;64.20;;;;;;5010373;28;20221;-65
2023/06/03 04:45:17;;;;;;;0.30;0.30;;;14.10;64.30;;;;;;5010580;28;20216;-65
2023/06/03 04:47:44;;;;;;;0.67;0.50;;;14.20;64.20;;;;;;5011126;28;20236;-65
2023/06/03 04:50:17;;;;;;;0.50;0.50;;;14.20;64.20;;;;;;5007188;28;20197;-65
2023/06/03 04:52:44;;;;;;;0.60;0.60;;;13.60;63.40;;;;;;5010417;28;20194;-65
2023/06/03 04:55:13;;;;;;;0.40;0.40;;;14.30;64.10;;;;;;5011591;28;20206;-65
2023/06/03 04:57:40;;;;;;;0.47;0.47;;;14.40;64.10;;;;;;5009298;28;20207;-66
2023/06/03 05:00:11;;;;;;;0.43;0.43;;;14.40;64.00;;;;;;4994300;28;20214;-66
2023/06/03 05:02:44;;;;;;;0.60;0.60;;;14.40;63.80;;;;;;5010185;28;20313;-66
2023/06/03 05:05:12;;;;;;;0.50;0.50;;;14.40;63.80;;;;;;5028555;28;20206;-66
2023/06/03 05:07:39;;;;;;;0.50;0.50;;;14.50;63.80;;;;;;5011384;28;20261;-66
2023/06/03 05:10:07;;;;;;;0.40;0.40;;;14.50;63.70;;;;;;5014788;28;20618;-66
2023/06/03 05:12:35;;;;;;;0.40;0.40;;;14.60;63.70;;;;;;5013154;28;20201;-66
2023/06/03 05:15:02;;;;;;;0.47;0.47;;;14.60;63.60;;;;;;5014426;28;20225;-66
2023/06/03 05:17:29;;;;;;;0.30;0.30;;;14.70;63.60;;;;;;5032098;28;20517;-66
2023/06/03 05:19:58;;;;;;;0.47;0.47;;;14.70;63.40;;;;;;5007337;28;20206;-65
2023/06/03 05:22:25;;;;;;;0.40;0.40;;;14.70;63.30;;;;;;5012697;28;20210;-65
2023/06/03 05:24:52;;;;;;;0.40;0.40;;;14.70;63.10;;;;;;5014662;28;20606;-66
2023/06/03 05:27:19;;;;;;;0.37;0.37;;;14.70;63.10;;;;;;5030389;28;20190;-66
2023/06/03 05:29:47;;;;;;;0.60;0.40;;;14.80;63.80;;;;;;5013716;28;20203;-66
2023/06/03 05:32:14;;;;;;;0.40;0.40;;;14.80;63.00;;;;;;5023524;28;20199;-66
2023/06/03 05:34:41;;;;;;;0.30;0.30;;;14.80;62.90;;;;;;5013351;28;20210;-66
2023/06/03 05:37:10;;;;;;;0.30;0.30;;;14.80;62.80;;;;;;5014215;28;20304;-66
2023/06/03 05:39:38;;;;;;;0.40;0.40;;;14.80;62.80;;;;;;5014021;28;20575;-66
2023/06/03 05:42:08;;;;;;;0.77;0.40;;;14.80;62.70;;;;;;5006040;28;20555;-66
2023/06/03 05:44:35;;;;;;;0.30;0.30;;;14.90;62.90;;;;;;5028205;28;20205;-66
2023/06/03 05:47:03;;;;;;;2.20;0.40;;;15.00;62.50;;;;;;5022154;28;20198;-66
2023/06/03 05:49:31;;;;;;;0.40;0.40;;;15.00;62.50;;;;;;5012390;28;20214;-66
2023/06/03 05:51:58;;;;;;;0.30;0.30;;;15.00;62.40;;;;;;5029411;28;20202;-66
2023/06/03 05:54:28;;;;;;;0.30;0.30;;;15.10;62.40;;;;;;5013540;28;20198;-66
2023/06/03 05:56:57;;;;;;;0.40;0.40;;;15.10;62.20;;;;;;5013506;28;20213;-66
2023/06/03 05:59:24;;;;;;;0.77;0.30;;;15.10;62.10;;;;;;5011007;28;20234;-66
2023/06/03 06:01:51;;;;;;;0.53;0.40;;;15.10;62.00;;;;;;5010826;28;20376;-67
2023/06/03 06:04:18;;;;;;;0.50;0.40;;;15.10;61.90;;;;;;5012917;28;20658;-66
2023/06/03 06:06:46;;;;;;;0.50;0.50;;;15.10;61.60;;;;;;5019785;28;20219;-66
2023/06/03 06:09:14;;;;;;;0.40;0.40;;;15.00;61.40;;;;;;5014010;28;20221;-66
2023/06/03 06:11:43;;;;;;;0.40;0.40;;;15.10;61.50;;;;;;5023169;28;20210;-66
2023/06/03 06:14:10;;;;;;;0.40;0.40;;;15.10;62.20;;;;;;5030132;28;20312;-66
2023/06/03 06:16:38;;;;;;;0.30;0.30;;;15.20;61.50;;;;;;5030886;28;20225;-66
2023/06/03 06:19:05;;;;;;;0.40;0.40;;;15.20;61.20;;;;;;5005645;28;20553;-66
2023/06/03 06:21:33;;;;;;;1.03;0.60;;;15.30;61.10;;;;;;5006892;28;20668;-66
2023/06/03 06:24:02;;;;;;;0.83;0.40;;;15.30;60.60;;;;;;5007210;28;20837;-65
2023/06/03 06:26:29;;;;;;;0.40;0.40;;;15.40;60.70;;;;;;5012763;28;20209;-66
2023/06/03 06:29:01;;;;;;;0.50;0.50;;;15.40;60.70;;;;;;5030549;28;20207;-66
2023/06/03 06:31:28;;;;;;;0.50;0.50;;;15.40;60.60;;;;;;5029589;28;20279;-65
2023/06/03 06:33:55;;;;;;;0.40;0.40;;;15.40;60.40;;;;;;5011381;28;20303;-66
2023/06/03 06:36:39;;;;;;;0.60;0.60;;;15.50;60.30;;;;;;5011609;28;20284;-65
2023/06/03 06:39:37;;;;;;;0.53;0.53;;;15.50;60.30;;;;;;5013164;28;20220;-66
2023/06/03 06:42:12;;;;;;;0.50;0.50;;;15.60;60.20;;;;;;5012935;28;20217;-65
2023/06/03 06:44:46;;;;;;;0.50;0.50;;;15.70;60.20;;;;;;5012804;28;20316;-66
2023/06/03 06:47:15;;;;;;;0.30;0.30;;;15.70;60.30;;;;;;5030818;28;20191;-66
2023/06/03 06:49:42;;;;;;;0.50;0.50;;;15.70;60.30;;;;;;5028445;28;20526;-65
2023/06/03 06:52:10;;;;;;;0.50;0.50;;;15.70;60.40;;;;;;4995492;28;20672;-65
2023/06/03 06:54:37;;;;;;;0.40;0.40;;;15.80;60.50;;;;;;5013620;28;20575;-65
2023/06/03 06:57:06;;;;;;;1.60;0.60;;;15.80;60.30;;;;;;5013100;28;20606;-66
2023/06/03 06:59:33;;;;;;;0.40;0.40;;;15.80;60.10;;;;;;5010770;28;20236;-66
2023/06/03 07:02:02;;;;;;;0.40;0.40;;;15.90;60.00;;;;;;5012860;28;20218;-66
2023/06/03 07:04:29;;;;;;;0.40;0.40;;;15.90;60.00;;;;;;5029597;28;20539;-66
2023/06/03 07:06:56;;;;;;;0.47;0.47;;;16.00;59.90;;;;;;5012564;28;20276;-66
2023/06/03 07:09:23;;;;;;;0.40;0.40;;;16.00;59.80;;;;;;5012134;28;20249;-65
2023/06/03 07:11:50;;;;;;;0.37;0.37;;;16.00;59.70;;;;;;5024389;28;20204;-65
2023/06/03 07:14:19;;;;;;;0.57;0.57;;;16.10;59.70;;;;;;5011476;28;20203;-65
2023/06/03 07:16:49;;;;;;;0.87;0.40;;;16.10;59.70;;;;;;5011882;28;20612;-65
2023/06/03 07:19:18;;;;;;;2.30;0.90;;;16.20;59.70;;;;;;5010988;28;20221;-64
2023/06/03 07:21:48;;;;;;;1.20;0.90;;;16.20;59.40;;;;;;5012358;28;20265;-64
2023/06/03 07:24:16;;;;;;;0.50;0.50;;;16.30;58.90;;;;;;5011784;28;20301;-65
2023/06/03 07:26:47;;;;;;;0.83;0.63;;;16.40;59.00;;;;;;5011696;28;20627;-65
2023/06/03 07:29:15;;;;;;;0.60;0.60;;;16.50;59.10;;;;;;5011795;28;20215;-65
2023/06/03 07:31:42;;;;;;;0.53;0.53;;;16.40;58.90;;;;;;5008200;28;20264;-65
2023/06/03 07:34:15;;;;;;;0.60;0.60;;;16.50;59.00;;;;;;5010706;28;20633;-65
2023/06/03 07:36:50;;;;;;;0.50;0.50;;;16.50;58.90;;;;;;5003635;28;20234;-66
2023/06/03 07:39:21;;;;;;;0.63;0.63;;;16.50;58.90;;;;;;5011983;28;20805;-65
2023/06/03 07:41:54;;;;;;;0.50;0.50;;;16.50;58.70;;;;;;5011047;28;20269;-66
2023/06/03 07:44:42;;;;;;;0.60;0.60;;;16.60;58.50;;;;;;5005358;28;20197;-65
2023/06/03 07:47:11;;;;;;;2.17;0.77;;;16.60;58.60;;;;;;5029385;28;20224;-65
2023/06/03 07:49:39;;;;;;;0.60;0.60;;;16.70;58.50;;;;;;5019461;28;20285;-65
2023/06/03 07:52:12;;;;;;;1.23;0.70;;;16.80;58.40;;;;;;5016698;28;20661;-65
2023/06/03 07:54:39;;;;;;;0.70;0.67;;;16.90;58.40;;;;;;5020566;28;20296;-65
2023/06/03 07:57:07;;;;;;;0.70;0.70;;;16.90;58.50;;;;;;5028827;28;20323;-65
2023/06/03 07:59:34;;;;;;;0.80;0.80;;;17.00;58.30;;;;;;5027133;28;20234;-65
2023/06/03 08:02:03;;;;;;;2.03;0.80;;;17.00;57.90;;;;;;5029134;28;20217;-65
2023/06/03 08:04:33;;;;;;;0.90;0.80;;;17.00;57.90;;;;;;5028349;28;20245;-66
2023/06/03 08:07:02;;;;;;;0.60;0.60;;;17.10;58.00;;;;;;5029505;28;20322;-66
2023/06/03 08:09:36;;;;;;;0.73;0.73;;;17.10;58.10;;;;;;5022838;28;20202;-66
2023/06/03 08:12:05;;;;;;;0.57;0.57;;;17.20;58.10;;;;;;5028731;28;20240;-66
2023/06/03 08:14:35;;;;;;;0.40;0.40;;;17.20;58.20;;;;;;5027317;28;20198;-66
2023/06/03 08:17:05;;;;;;;0.43;0.43;;;17.30;58.40;;;;;;5028507;28;20191;-66
2023/06/03 08:19:33;;;;;;;1.07;0.93;;;17.40;58.40;;;;;;5027254;28;20239;-66
2023/06/03 08:22:00;;;;;;;0.80;0.80;;;17.50;58.10;;;;;;5024729;28;20226;-66
2023/06/03 08:24:27;;;;;;;1.90;1.00;;;17.50;58.00;;;;;;5027135;28;20635;-66
2023/06/03 08:26:56;;;;;;;0.90;0.80;;;17.50;57.60;;;;;;5010537;28;20195;-66
2023/06/03 08:29:23;;;;;;;0.60;0.60;;;17.60;57.90;;;;;;4999161;28;20202;-66
2023/06/03 08:31:50;;;;;;;0.60;0.60;;;17.60;57.90;;;;;;5028122;28;20265;-66
2023/06/03 08:34:17;;;;;;;0.60;0.60;;;17.70;57.90;;;;;;5009663;28;20549;-66
2023/06/03 08:36:44;;;;;;;0.60;0.60;;;17.80;58.00;;;;;;5021148;28;20257;-66
2023/06/03 08:39:11;;;;;;;0.60;0.60;;;17.80;57.90;;;;;;5028753;28;20269;-66
2023/06/03 08:41:41;;;;;;;0.83;0.57;;;17.90;57.70;;;;;;5018447;28;20217;-66
2023/06/03 08:44:21;;;;;;;0.60;0.60;;;18.00;57.50;;;;;;5028404;28;20210;-66
2023/06/03 08:46:58;;;;;;;0.95;0.70;;;18.00;57.50;;;;;;5026332;28;20614;-66
2023/06/03 08:49:34;;;;;;;0.70;0.70;;;18.00;57.40;;;;;;5031693;28;20204;-66
2023/06/03 08:52:07;;;;;;;0.63;0.63;;;18.10;57.30;;;;;;5025133;28;20204;-66
2023/06/03 08:54:38;;;;;;;0.50;0.50;;;18.20;57.30;;;;;;5017970;28;20185;-66
2023/06/03 08:57:10;;;;;;;0.60;0.60;;;18.20;57.20;;;;;;5027478;28;20666;-66
2023/06/03 08:59:41;;;;;;;0.80;0.80;;;18.30;57.30;;;;;;5030258;28;20583;-67
2023/06/03 09:02:12;;;;;;;0.90;0.90;;;18.40;57.20;;;;;;5023237;28;20276;-66
2023/06/03 09:04:40;;;;;;;1.33;1.10;;;18.60;56.70;;;;;;5020562;28;20214;-65
2023/06/03 09:07:09;;;;;;;0.90;0.90;;;18.50;55.80;;;;;;5032614;28;20288;-66
2023/06/03 09:09:38;;;;;;;0.82;0.82;;;18.50;55.70;;;;;;5032498;28;20201;-65
2023/06/03 09:12:07;;;;;;;1.58;1.05;;;18.50;55.90;;;;;;5032433;28;20209;-66
2023/06/03 09:14:35;;;;;;;2.00;0.93;;;18.60;55.90;;;;;;5025223;28;20702;-66
2023/06/03 09:17:04;;;;;;;0.80;0.80;;;18.60;55.90;;;;;;5032157;28;20307;-65
2023/06/03 09:19:31;;;;;;;3.33;1.55;;;18.60;55.90;;;;;;5030683;28;20244;-65
2023/06/03 09:21:59;;;;;;;3.00;1.45;;;18.70;55.40;;;;;;5004323;28;20628;-65
2023/06/03 09:24:27;;;;;;;4.50;1.60;;;18.70;55.30;;;;;;5032234;28;20210;-66
2023/06/03 09:26:55;;;;;;;1.70;1.10;;;18.80;54.90;;;;;;5031886;28;20207;-66
2023/06/03 09:29:22;;;;;;;1.02;0.90;;;18.70;54.50;;;;;;5020972;28;20662;-65
2023/06/03 09:31:49;;;;;;;3.40;1.10;;;18.70;54.20;;;;;;5006772;28;20217;-66
2023/06/03 09:34:18;;;;;;;0.95;0.95;;;18.80;54.10;;;;;;5013221;28;20208;-66
2023/06/03 09:36:46;;;;;;;1.10;0.95;;;18.80;54.30;;;;;;5032376;28;20226;-66
2023/06/03 09:39:16;;;;;;;3.53;2.10;;;18.90;54.40;;;;;;5026349;28;20250;-65
2023/06/03 09:41:44;;;;;;;1.98;1.77;;;18.90;53.90;;;;;;5031608;28;20697;-65
2023/06/03 09:44:11;;;;;;;1.40;1.30;;;19.00;53.60;;;;;;5031207;28;20214;-65
2023/06/03 09:46:38;;;;;;;0.90;0.90;;;19.10;53.80;;;;;;5027894;28;20206;-66
2023/06/03 09:49:10;;;;;;;0.85;0.85;;;19.10;53.60;;;;;;5031016;28;20679;-66
2023/06/03 09:51:43;;;;;;;0.70;0.70;;;19.20;53.60;;;;;;5029450;28;20233;-65
2023/06/03 09:54:12;;;;;;;0.80;0.80;;;19.30;53.60;;;;;;5031385;28;20194;-66
2023/06/03 09:56:39;;;;;;;0.85;0.85;;;19.40;53.30;;;;;;5031142;28;20282;-66
2023/06/03 09:59:17;;;;;;;0.70;0.70;;;19.50;53.30;;;;;;5029655;28;20277;-66
2023/06/03 10:01:47;;;;;;;0.70;0.70;;;19.50;53.00;;;;;;5029673;28;20199;-66
2023/06/03 10:04:17;;;;;;;0.88;0.88;;;19.50;52.70;;;;;;5031240;28;20210;-66
2023/06/03 10:06:47;;;;;;;1.08;1.08;;;19.50;52.00;;;;;;5024467;28;20649;-65
2023/06/03 10:09:21;;;;;;;1.02;1.00;;;19.40;51.80;;;;;;5013780;28;20226;-66
2023/06/03 10:11:50;;;;;;;0.82;0.82;;;19.50;51.60;;;;;;5023928;28;20201;-66
2023/06/03 10:14:22;;;;;;;0.82;0.77;;;19.50;50.50;;;;;;5016633;28;20611;-66
2023/06/03 10:17:06;;;;;;;1.10;1.10;;;19.50;50.50;;;;;;5028167;28;20288;-66
2023/06/03 10:19:35;;;;;;;1.00;0.85;;;19.50;50.80;;;;;;5026260;28;20281;-66
2023/06/03 10:22:04;;;;;;;0.98;0.80;;;19.60;50.40;;;;;;5027076;28;20194;-66
2023/06/03 10:24:34;;;;;;;1.05;0.80;;;19.60;50.20;;;;;;5029393;28;20253;-66
2023/06/03 10:27:02;;;;;;;0.82;0.82;;;19.70;50.50;;;;;;5021906;28;20226;-66
2023/06/03 10:29:30;;;;;;;3.83;0.80;;;19.70;50.30;;;;;;5021070;28;20199;-66
2023/06/03 10:31:58;;;;;;;0.47;0.47;;;19.80;49.30;;;;;;5029300;28;20260;-66
2023/06/03 10:34:25;;;;;;;0.88;0.88;;;19.80;49.20;;;;;;5023876;28;20215;-66
2023/06/03 10:36:56;;;;;;;1.10;1.10;;;19.90;49.40;;;;;;5017128;28;20207;-66
2023/06/03 10:39:26;;;;;;;0.75;0.75;;;19.90;49.30;;;;;;5026733;28;20191;-66
2023/06/03 10:41:55;;;;;;;0.90;0.90;;;19.90;49.40;;;;;;5026499;28;20490;-66
2023/06/03 10:44:22;;;;;;;0.73;0.73;;;19.90;49.00;;;;;;5022151;28;20214;-66
2023/06/03 10:46:55;;;;;;;0.90;0.90;;;19.70;49.20;;;;;;5028845;28;20332;-66
2023/06/03 10:49:28;;;;;;;1.13;1.00;;;19.60;49.40;;;;;;5028265;28;20217;-66
2023/06/03 10:52:06;;;;;;;1.98;1.60;;;19.50;49.10;;;;;;5022635;28;20191;-66
2023/06/03 10:54:45;;;;;;;1.48;1.25;;;19.40;49.20;;;;;;5029974;28;20198;-66
2023/06/03 10:57:15;;;;;;;1.00;1.00;;;19.20;49.80;;;;;;5029679;28;20266;-66
2023/06/03 10:59:44;;;;;;;0.80;0.80;;;19.10;49.40;;;;;;5017417;28;20235;-66
2023/06/03 11:02:11;;;;;;;0.60;0.60;;;19.00;49.70;;;;;;5029708;28;20297;-66
2023/06/03 11:04:39;;;;;;;0.60;0.60;;;19.00;49.90;;;;;;5028201;28;20211;-66
2023/06/03 11:07:07;;;;;;;0.50;0.50;;;18.90;50.00;;;;;;5023469;28;20230;-66
2023/06/03 11:09:38;;;;;;;0.52;0.52;;;18.90;50.10;;;;;;5029648;28;20264;-66
2023/06/03 11:12:09;;;;;;;0.50;0.50;;;18.90;50.20;;;;;;5010506;28;20237;-66
2023/06/03 11:14:57;;;;;;;0.50;0.50;;;18.90;50.30;;;;;;5025886;28;20182;-66
2023/06/03 11:17:25;;;;;;;0.40;0.40;;;18.90;50.40;;;;;;5022720;28;20249;-66
2023/06/03 11:19:55;;;;;;;2.25;0.45;;;19.00;50.50;;;;;;5024934;28;20268;-66
2023/06/03 11:22:45;;;;;;;2.47;0.80;;;19.10;50.60;;;;;;5027648;28;20215;-66
2023/06/03 11:25:31;;;;;;;0.90;0.90;;;19.30;50.40;;;;;;5011214;28;20220;-66
2023/06/03 11:28:30;;;;;;;2.42;0.88;;;19.40;49.90;;;;;;5025914;28;20191;-66
2023/06/03 11:30:58;;;;;;;0.80;0.80;;;19.50;49.60;;;;;;5029269;28;20224;-66
2023/06/03 11:33:25;;;;;;;1.10;0.60;;;19.60;48.60;;;;;;5028312;28;20202;-66
2023/06/03 11:35:52;;;;;;;0.60;0.60;;;19.60;48.70;;;;;;5028945;28;20225;-66
2023/06/03 11:38:39;;;;;;;0.60;0.60;;;19.50;48.80;;;;;;5010535;28;20583;-66
2023/06/03 11:41:07;;;;;;;1.40;0.90;;;19.60;49.10;;;;;;5022975;28;20206;-66
2023/06/03 11:43:35;;;;;;;0.90;0.90;;;19.80;49.10;;;;;;5005926;28;20323;-66
2023/06/03 11:46:06;;;;;;;0.93;0.93;;;19.90;49.00;;;;;;5029671;28;20564;-66
2023/06/03 11:48:37;;;;;;;1.92;0.98;;;19.90;48.70;;;;;;5027543;28;20285;-66
2023/06/03 11:51:05;;;;;;;1.48;1.15;;;20.00;48.70;;;;;;5028829;28;20197;-66
2023/06/03 11:53:33;;;;;;;1.15;1.13;;;20.00;48.80;;;;;;5021847;28;20195;-66
2023/06/03 11:56:05;;;;;;;1.20;1.10;;;20.00;48.30;;;;;;5010958;28;20351;-66
2023/06/03 11:58:34;;;;;;;1.92;1.30;;;20.00;48.30;;;;;;5022901;28;20234;-66
2023/06/03 12:01:10;;;;;;;1.58;1.48;;;20.00;48.10;;;;;;5022270;28;20194;-66
2023/06/03 12:03:38;;;;;;;1.20;1.10;;;20.00;48.00;;;;;;5028225;28;20759;-66
2023/06/03 12:06:06;;;;;;;0.82;0.82;;;20.00;48.20;;;;;;5029063;28;20233;-66
2023/06/03 12:08:43;;;;;;;1.00;0.90;;;20.00;48.50;;;;;;5025641;28;20268;-66
2023/06/03 12:11:10;;;;;;;1.98;0.90;;;19.90;48.30;;;;;;5029666;28;20248;-66
2023/06/03 12:13:42;;;;;;;0.70;0.70;;;19.90;48.20;;;;;;5026817;28;20198;-66
2023/06/03 12:16:09;;;;;;;0.90;0.90;;;19.80;48.40;;;;;;5022578;28;20651;-66
2023/06/03 12:18:36;;;;;;;1.65;1.55;;;19.70;48.40;;;;;;5013353;28;20194;-66
2023/06/03 12:21:22;;;;;;;2.53;1.60;;;19.80;49.20;;;;;;5033021;28;20229;-66
2023/06/03 12:23:49;;;;;;;1.60;1.48;;;19.70;48.50;;;;;;5027921;28;20222;-66
2023/06/03 12:26:16;;;;;;;1.50;1.40;;;19.70;48.40;;;;;;5032576;28;20619;-66
2023/06/03 12:28:46;;;;;;;1.05;1.05;;;19.70;48.30;;;;;;5031708;28;20214;-66
2023/06/03 12:31:14;;;;;;;0.95;0.90;;;19.60;48.30;;;;;;5028998;28;20264;-66
2023/06/03 12:33:41;;;;;;;0.90;0.90;;;19.60;48.30;;;;;;5031953;28;20656;-66
2023/06/03 12:36:09;;;;;;;1.02;1.02;;;19.50;47.90;;;;;;5030718;28;20209;-66
2023/06/03 12:38:55;;;;;;;1.02;0.93;;;19.50;47.70;;;;;;5030531;28;20195;-66
2023/06/03 12:41:22;;;;;;;0.70;0.70;;;19.50;47.90;;;;;;5033798;28;20257;-66
2023/06/03 12:43:59;;;;;;;0.73;0.73;;;19.40;47.80;;;;;;5031479;28;20206;-66
2023/06/03 12:46:26;;;;;;;0.80;0.80;;;19.40;47.80;;;;;;5033180;28;20221;-67
2023/06/03 12:48:56;;;;;;;0.70;0.70;;;19.40;47.80;;;;;;5031359;28;20251;-66
2023/06/03 12:51:28;;;;;;;0.95;0.65;;;19.40;47.30;;;;;;5033391;28;20214;-65
2023/06/03 12:53:56;;;;;;;0.90;0.90;;;19.40;47.10;;;;;;5027402;28;20629;-65
2023/06/03 12:56:24;;;;;;;1.50;0.90;;;19.40;47.00;;;;;;5033060;28;20289;-65
2023/06/03 12:58:54;;;;;;;1.30;0.70;;;19.40;46.80;;;;;;5009834;28;20233;-66
2023/06/03 13:01:21;;;;;;;0.60;0.60;;;19.40;46.50;;;;;;5032971;28;20218;-65